Old Station, California
Current Conditions -  °F | °C
As of 11:53 AM on Thursday 30 Oct 2014 (Local Time) from KRDD Reporting Station
Clear Clear  
Wind Chill: 65°   Ceiling: Unl
Heat Index: 65°   Visibility: 10mi
Dew Point: 55°   Wind: 0mph
Humidity: 70%   Direction: NA
Pressure: 29.93"   Gusts: NA
Location:  40.68°N, 121.43°W
Report Text: KRDD 301853Z 00000KT 10SM CLR 18/13 A2993 RMK AO2 SLP134 T01830128
Loading
Personal Weather Stations






























Interactive Weather Map
Tropical Storm Tracking
New forecast layout! Learn more

10-Day Weather Forecast

Advertisements
Track Severe Weather on mobile